createdAt,value
2019-05-30T00:01:04.220Z,1.53
2019-05-30T00:03:34.122Z,1.13
2019-05-30T00:06:04.598Z,1.17
2019-05-30T00:08:34.465Z,1.17
2019-05-30T00:11:04.856Z,1.53
2019-05-30T00:13:35.118Z,1.20
2019-05-30T00:16:05.647Z,1.20
2019-05-30T00:18:35.613Z,1.23
2019-05-30T00:21:05.399Z,1.00
2019-05-30T00:23:35.259Z,1.00
2019-05-30T00:26:06.030Z,1.30
2019-05-30T00:28:35.797Z,1.30
2019-05-30T00:31:06.614Z,1.20
2019-05-30T00:33:37.564Z,1.23
2019-05-30T00:36:07.358Z,1.03
2019-05-30T00:38:37.426Z,1.40
2019-05-30T00:41:07.358Z,1.17
2019-05-30T00:43:37.459Z,1.07
2019-05-30T00:46:07.322Z,1.13
2019-05-30T00:48:37.111Z,1.37
2019-05-30T00:51:07.188Z,1.10
2019-05-30T00:53:36.986Z,1.20
2019-05-30T00:56:06.912Z,1.10
2019-05-30T00:58:36.627Z,1.20
2019-05-30T01:01:07.153Z,1.00
2019-05-30T01:03:37.054Z,1.17
2019-05-30T01:06:07.371Z,1.03
2019-05-30T01:08:37.119Z,1.27
2019-05-30T01:11:07.492Z,1.10
2019-05-30T01:13:37.276Z,1.40
2019-05-30T01:16:07.389Z,1.20
2019-05-30T01:18:37.179Z,1.00
2019-05-30T01:21:07.513Z,1.00
2019-05-30T01:23:40.710Z,1.07
2019-05-30T01:26:10.576Z,1.07
2019-05-30T01:28:40.364Z,1.00
2019-05-30T01:31:11.692Z,1.20
2019-05-30T01:33:41.568Z,1.00
2019-05-30T01:36:11.353Z,1.13
2019-05-30T01:38:41.120Z,1.13
2019-05-30T01:41:10.897Z,0.90
2019-05-30T01:43:40.659Z,1.10
2019-05-30T01:46:10.442Z,1.13
2019-05-30T01:48:40.209Z,1.00
2019-05-30T01:51:10.002Z,0.93
2019-05-30T01:53:39.769Z,1.10
2019-05-30T01:56:09.715Z,0.93
2019-05-30T01:58:39.763Z,0.90
2019-05-30T02:01:22.337Z,1.20
2019-05-30T02:03:41.016Z,1.30
2019-05-30T02:06:11.141Z,1.20
2019-05-30T02:08:41.258Z,1.23
2019-05-30T02:11:11.186Z,1.00
2019-05-30T02:13:40.971Z,1.30
2019-05-30T02:16:10.744Z,1.40
2019-05-30T02:18:40.496Z,1.40
2019-05-30T02:21:10.275Z,1.00
2019-05-30T02:23:40.335Z,1.20
2019-05-30T02:26:10.537Z,1.20
2019-05-30T02:28:40.482Z,1.27
2019-05-30T02:31:12.273Z,1.50
2019-05-30T02:33:42.040Z,1.27
2019-05-30T02:36:12.668Z,1.47
2019-05-30T02:38:42.765Z,1.00
2019-05-30T02:41:12.751Z,0.90
2019-05-30T02:43:42.930Z,1.00
2019-05-30T02:46:12.798Z,1.07
2019-05-30T02:48:58.400Z,1.10
2019-05-30T02:51:15.331Z,1.47
2019-05-30T02:53:45.125Z,1.40
2019-05-30T02:56:14.893Z,1.20
2019-05-30T02:58:44.799Z,1.03
2019-05-30T03:01:14.875Z,1.30
2019-05-30T03:03:44.734Z,1.40
2019-05-30T03:06:14.791Z,1.20
2019-05-30T03:08:44.567Z,1.33
2019-05-30T03:11:15.760Z,1.03
2019-05-30T03:13:46.195Z,1.17
2019-05-30T03:16:15.959Z,1.30
2019-05-30T03:18:45.740Z,1.20
2019-05-30T03:21:15.975Z,1.07
2019-05-30T03:23:45.909Z,1.40
2019-05-30T03:26:16.350Z,1.30
2019-05-30T03:28:46.403Z,1.13
2019-05-30T03:31:27.935Z,1.20
2019-05-30T03:33:50.456Z,1.33
2019-05-30T03:36:30.030Z,1.10
2019-05-30T03:38:51.993Z,1.07
2019-05-30T03:41:21.846Z,1.40
2019-05-30T03:43:51.746Z,1.13
2019-05-30T03:46:26.440Z,1.33
2019-05-30T03:48:57.952Z,1.30
2019-05-30T03:51:30.312Z,1.60
2019-05-30T03:54:01.618Z,1.20
2019-05-30T03:56:37.714Z,1.40
2019-05-30T03:59:14.835Z,1.30
2019-05-30T04:02:08.578Z,1.40
2019-05-30T04:04:42.060Z,1.57
2019-05-30T04:07:17.091Z,1.27
2019-05-30T04:09:48.307Z,1.17
2019-05-30T04:12:27.369Z,1.37
2019-05-30T04:15:02.363Z,1.40
2019-05-30T04:17:32.281Z,1.30
2019-05-30T04:20:02.379Z,1.53
2019-05-30T04:22:32.144Z,1.50
2019-05-30T04:25:01.935Z,1.50
2019-05-30T04:27:31.702Z,1.63
2019-05-30T04:30:01.474Z,1.50
2019-05-30T04:32:32.661Z,1.80
2019-05-30T04:35:02.454Z,1.63
2019-05-30T04:37:32.213Z,2.00
2019-05-30T04:40:02.299Z,2.10
2019-05-30T04:42:32.068Z,1.83
2019-05-30T04:45:01.858Z,1.80
2019-05-30T04:47:31.933Z,1.97
2019-05-30T04:50:01.913Z,2.00
2019-05-30T04:52:31.682Z,1.70
2019-05-30T04:55:01.526Z,2.03
2019-05-30T04:57:31.592Z,2.30
2019-05-30T05:00:01.690Z,2.00
2019-05-30T05:02:32.667Z,1.93
2019-05-30T05:05:02.455Z,1.60
2019-05-30T05:07:32.473Z,1.70
2019-05-30T05:10:02.335Z,1.80
2019-05-30T05:12:32.405Z,1.83
2019-05-30T05:15:02.552Z,2.20
2019-05-30T05:17:32.561Z,2.03
2019-05-30T05:20:02.351Z,2.20
2019-05-30T05:22:32.112Z,2.33
2019-05-30T05:25:01.997Z,2.30
2019-05-30T05:27:32.087Z,1.90
2019-05-30T05:30:01.945Z,1.73
2019-05-30T05:32:31.739Z,2.80
2019-05-30T05:35:01.524Z,2.10
2019-05-30T05:37:31.288Z,2.50
2019-05-30T05:40:01.060Z,3.20
2019-05-30T05:42:30.838Z,1.90
2019-05-30T05:45:00.707Z,2.33
2019-05-30T05:47:30.479Z,1.90
2019-05-30T05:50:00.281Z,2.17
2019-05-30T05:52:30.419Z,2.07
2019-05-30T05:55:00.488Z,1.70
2019-05-30T05:57:30.306Z,1.80
2019-05-30T06:00:00.181Z,1.63
2019-05-30T06:02:30.021Z,1.90
2019-05-30T06:04:59.803Z,1.63
2019-05-30T06:07:29.909Z,2.00
2019-05-30T06:10:00.753Z,1.70
2019-05-30T06:12:30.554Z,1.67
2019-05-30T06:15:00.383Z,1.60
2019-05-30T06:17:30.143Z,1.90
2019-05-30T06:19:59.998Z,1.80
2019-05-30T06:22:29.758Z,1.40
2019-05-30T06:24:59.541Z,1.67
2019-05-30T06:27:29.309Z,1.20
2019-05-30T06:29:59.147Z,1.17
2019-05-30T06:32:29.694Z,1.40
2019-05-30T06:35:00.415Z,1.13
2019-05-30T06:37:30.193Z,1.23
2019-05-30T06:39:59.966Z,0.93
2019-05-30T06:42:30.364Z,1.40
2019-05-30T06:45:01.159Z,1.00
2019-05-30T06:47:31.290Z,1.10
2019-05-30T06:50:01.116Z,0.87
2019-05-30T06:52:32.109Z,0.80
2019-05-30T06:55:02.377Z,0.90
2019-05-30T06:57:32.176Z,0.90
2019-05-30T07:00:02.272Z,0.77
2019-05-30T07:02:32.606Z,1.00
2019-05-30T07:05:03.173Z,0.83
2019-05-30T07:07:33.959Z,0.90
2019-05-30T07:10:04.573Z,0.77
2019-05-30T07:12:34.743Z,0.70
2019-05-30T07:15:07.036Z,0.90
2019-05-30T07:17:37.160Z,1.10
2019-05-30T07:20:07.544Z,1.33
2019-05-30T07:22:37.427Z,0.80
2019-05-30T07:25:08.079Z,1.07
2019-05-30T07:27:38.003Z,0.97
2019-05-30T07:30:08.731Z,1.10
2019-05-30T07:32:38.827Z,0.77
2019-05-30T07:35:08.847Z,1.10
2019-05-30T07:37:38.663Z,0.93
2019-05-30T07:40:09.473Z,0.83
2019-05-30T07:42:39.319Z,0.83
2019-05-30T07:45:09.904Z,0.80
2019-05-30T07:47:40.156Z,0.90
2019-05-30T07:50:10.879Z,0.80
2019-05-30T07:52:40.659Z,0.80
2019-05-30T07:55:11.219Z,0.80
2019-05-30T07:57:41.958Z,0.83
2019-05-30T08:00:12.500Z,0.90
2019-05-30T08:02:42.721Z,1.10
2019-05-30T08:05:23.489Z,0.70
2019-05-30T08:07:44.673Z,0.80
2019-05-30T08:10:16.436Z,0.70
2019-05-30T08:12:46.471Z,0.80
2019-05-30T08:15:16.491Z,0.93
2019-05-30T08:17:46.359Z,0.90
2019-05-30T08:20:16.672Z,0.90
2019-05-30T08:22:46.843Z,0.90
2019-05-30T08:25:17.226Z,0.90
2019-05-30T08:27:47.004Z,1.00
2019-05-30T08:30:17.524Z,1.00
2019-05-30T08:32:47.929Z,0.83
2019-05-30T08:35:18.715Z,0.63
2019-05-30T08:37:48.494Z,2.17
2019-05-30T08:40:18.771Z,4.47
2019-05-30T08:42:49.100Z,2.70
2019-05-30T08:45:20.284Z,0.90
2019-05-30T08:47:50.579Z,0.83
2019-05-30T08:50:20.974Z,1.03
2019-05-30T08:52:50.799Z,0.73
2019-05-30T08:55:21.358Z,1.00
2019-05-30T08:57:51.929Z,0.83
2019-05-30T09:00:22.442Z,1.10
2019-05-30T09:02:52.387Z,1.10
2019-05-30T09:05:22.689Z,1.00
2019-05-30T09:07:54.997Z,1.17
2019-05-30T09:10:26.573Z,0.80
2019-05-30T09:12:56.861Z,0.80
2019-05-30T09:15:26.848Z,1.30
2019-05-30T09:17:56.890Z,0.73
2019-05-30T09:20:27.161Z,0.90
2019-05-30T09:22:59.199Z,0.60
2019-05-30T09:25:33.232Z,0.90
2019-05-30T09:28:03.080Z,1.07
2019-05-30T09:30:36.368Z,1.10
2019-05-30T09:33:06.215Z,1.33
2019-05-30T09:35:36.891Z,0.80
2019-05-30T09:38:06.819Z,0.70
2019-05-30T09:40:40.554Z,0.90
2019-05-30T09:43:13.339Z,1.10
2019-05-30T09:45:43.908Z,0.87
2019-05-30T09:48:18.197Z,0.70
2019-05-30T09:50:51.155Z,1.00
2019-05-30T09:53:20.924Z,0.77
2019-05-30T09:55:51.690Z,0.87
2019-05-30T09:58:22.860Z,0.87
2019-05-30T10:00:57.012Z,0.67
2019-05-30T10:03:27.741Z,0.70
2019-05-30T10:06:00.200Z,0.80
2019-05-30T10:08:32.000Z,1.20
2019-05-30T10:11:05.704Z,1.00
2019-05-30T10:13:35.676Z,0.80
2019-05-30T10:16:08.861Z,1.10
2019-05-30T10:18:38.684Z,0.80
2019-05-30T10:21:08.467Z,0.90
2019-05-30T10:23:38.244Z,0.83
2019-05-30T10:26:08.151Z,0.80
2019-05-30T10:28:37.873Z,1.20
2019-05-30T10:31:07.668Z,0.80
2019-05-30T10:33:37.754Z,1.07
2019-05-30T10:36:07.777Z,0.87
2019-05-30T10:38:37.968Z,0.70
2019-05-30T10:41:07.760Z,0.90
2019-05-30T10:43:37.529Z,0.90
2019-05-30T10:46:07.344Z,0.80
2019-05-30T10:48:37.416Z,0.87
2019-05-30T10:51:07.266Z,0.87
2019-05-30T10:53:37.771Z,1.10
2019-05-30T10:56:07.686Z,0.60
2019-05-30T10:58:37.464Z,0.90
2019-05-30T11:01:07.500Z,0.77
2019-05-30T11:03:38.545Z,0.90
2019-05-30T11:06:20.993Z,0.80
2019-05-30T11:08:53.241Z,0.87
2019-05-30T11:11:23.089Z,1.00
2019-05-30T11:13:53.277Z,1.90
2019-05-30T11:16:23.483Z,1.00
2019-05-30T11:18:54.604Z,0.70
2019-05-30T11:21:24.876Z,0.80
2019-05-30T11:23:54.725Z,0.77
2019-05-30T11:26:24.963Z,0.80
2019-05-30T11:28:54.835Z,0.80
2019-05-30T11:31:24.639Z,0.60
2019-05-30T11:33:55.038Z,0.70
2019-05-30T11:36:24.801Z,0.87
2019-05-30T11:38:55.323Z,0.93
2019-05-30T11:41:25.499Z,0.80
2019-05-30T11:43:55.629Z,0.83
2019-05-30T11:46:25.423Z,0.90
2019-05-30T11:48:55.652Z,1.10
2019-05-30T11:51:25.453Z,0.87
2019-05-30T11:53:55.876Z,0.90
2019-05-30T11:56:25.692Z,1.00
2019-05-30T11:58:56.002Z,1.00
2019-05-30T12:01:25.812Z,0.90
2019-05-30T12:03:56.520Z,1.03
2019-05-30T12:06:26.540Z,1.00
2019-05-30T12:08:56.955Z,0.93
2019-05-30T12:11:26.720Z,1.10
2019-05-30T12:13:57.405Z,0.90
2019-05-30T12:16:27.369Z,0.80
2019-05-30T12:18:58.084Z,1.10
2019-05-30T12:21:29.869Z,1.00
2019-05-30T12:24:00.390Z,1.00
2019-05-30T12:26:33.668Z,0.77
2019-05-30T12:29:02.318Z,1.10
2019-05-30T12:31:32.182Z,1.00
2019-05-30T12:34:02.701Z,0.97
2019-05-30T12:36:32.637Z,1.00
2019-05-30T12:39:02.760Z,0.90
2019-05-30T12:41:32.923Z,1.10
2019-05-30T12:44:03.383Z,0.87
2019-05-30T12:46:34.407Z,1.10
2019-05-30T12:49:04.375Z,1.00
2019-05-30T12:51:34.424Z,0.87
2019-05-30T12:54:04.667Z,0.90
2019-05-30T12:56:34.881Z,1.17
2019-05-30T12:59:04.917Z,1.00
2019-05-30T13:01:35.096Z,0.80
2019-05-30T13:04:05.463Z,0.80
2019-05-30T13:06:35.231Z,0.90
2019-05-30T13:09:07.850Z,1.10
2019-05-30T13:11:38.150Z,0.80
2019-05-30T13:14:08.025Z,0.90
2019-05-30T13:16:37.801Z,1.20
2019-05-30T13:19:07.768Z,1.10
2019-05-30T13:21:37.542Z,1.10
2019-05-30T13:24:07.361Z,1.20
2019-05-30T13:26:37.153Z,1.10
2019-05-30T13:29:06.965Z,1.10
2019-05-30T13:31:37.336Z,0.90
2019-05-30T13:34:07.226Z,0.90
2019-05-30T13:36:36.994Z,1.10
2019-05-30T13:39:07.675Z,1.30
2019-05-30T13:41:37.446Z,1.17
2019-05-30T13:44:09.430Z,1.50
2019-05-30T13:46:39.326Z,1.20
2019-05-30T13:49:09.106Z,1.40
2019-05-30T13:51:39.189Z,1.27
2019-05-30T13:54:09.354Z,1.50
2019-05-30T13:56:39.548Z,1.07
2019-05-30T13:59:10.143Z,1.00
2019-05-30T14:01:39.932Z,1.00
2019-05-30T14:04:10.449Z,1.07
2019-05-30T14:06:40.359Z,1.13
2019-05-30T14:09:10.468Z,1.00
2019-05-30T14:11:40.541Z,0.90
2019-05-30T14:16:50.211Z,1.20
2019-05-30T14:19:19.860Z,1.00
2019-05-30T14:21:49.531Z,1.20
2019-05-30T14:24:19.177Z,1.20
2019-05-30T14:26:48.837Z,1.40
2019-05-30T14:29:20.141Z,1.27
2019-05-30T14:31:50.154Z,1.20
2019-05-30T14:34:19.801Z,1.13
2019-05-30T14:36:49.707Z,1.40
2019-05-30T14:39:19.612Z,1.20
2019-05-30T14:41:49.267Z,1.40
2019-05-30T14:44:19.280Z,1.20
2019-05-30T14:46:48.940Z,1.00
2019-05-30T14:49:20.227Z,1.20
2019-05-30T14:51:49.892Z,1.10
2019-05-30T14:54:19.956Z,1.20
2019-05-30T14:56:49.612Z,1.03
2019-05-30T14:59:19.263Z,1.20
2019-05-30T15:01:48.922Z,1.37
2019-05-30T15:04:18.584Z,1.10
2019-05-30T15:06:48.292Z,1.20
2019-05-30T15:09:25.939Z,1.13
2019-05-30T15:11:49.384Z,1.20
2019-05-30T15:14:19.042Z,1.50
2019-05-30T15:16:48.812Z,1.10
2019-05-30T15:19:19.733Z,1.20
2019-05-30T15:21:49.388Z,1.30
2019-05-30T15:24:19.036Z,1.37
2019-05-30T15:26:48.713Z,1.17
2019-05-30T15:29:18.642Z,1.13
2019-05-30T15:31:48.437Z,1.20
2019-05-30T15:34:18.092Z,1.33
2019-05-30T15:36:47.765Z,1.10
2019-05-30T15:39:30.658Z,1.40
2019-05-30T15:41:49.013Z,1.30
2019-05-30T15:44:18.741Z,1.50
2019-05-30T15:46:48.416Z,1.23
2019-05-30T15:49:18.493Z,1.40
2019-05-30T15:51:48.380Z,1.20
2019-05-30T15:54:19.134Z,1.07
2019-05-30T15:56:48.892Z,1.17
2019-05-30T15:59:20.784Z,1.40
2019-05-30T16:01:50.780Z,1.20
2019-05-30T16:04:20.625Z,1.17
2019-05-30T16:06:50.271Z,1.50
2019-05-30T16:09:21.198Z,1.10
2019-05-30T16:11:50.868Z,1.40
2019-05-30T16:14:21.561Z,1.40
2019-05-30T16:16:51.408Z,1.20
2019-05-30T16:19:24.727Z,1.27
2019-05-30T16:21:52.461Z,1.47
2019-05-30T16:24:22.108Z,1.30
2019-05-30T16:26:52.939Z,1.10
2019-05-30T16:29:22.980Z,1.27
2019-05-30T16:31:53.419Z,1.40
2019-05-30T16:34:23.156Z,0.90
2019-05-30T16:36:52.877Z,1.30
2019-05-30T16:39:22.640Z,1.20
2019-05-30T16:41:52.901Z,1.10
2019-05-30T16:44:23.544Z,1.30
2019-05-30T16:46:53.208Z,1.00
2019-05-30T16:49:22.999Z,1.27
2019-05-30T16:51:52.700Z,1.10
2019-05-30T16:54:23.457Z,1.20
2019-05-30T16:56:53.107Z,1.40
2019-05-30T16:59:22.926Z,1.20
2019-05-30T17:01:57.971Z,1.00
2019-05-30T17:04:24.175Z,1.13
2019-05-30T17:06:54.091Z,1.20
2019-05-30T17:09:23.824Z,0.97
2019-05-30T17:11:53.473Z,1.00
2019-05-30T17:14:23.947Z,1.43
2019-05-30T17:16:53.904Z,1.20
2019-05-30T17:19:24.525Z,1.03
2019-05-30T17:21:54.495Z,1.10
2019-05-30T17:24:25.230Z,1.20
2019-05-30T17:26:54.996Z,1.13
2019-05-30T17:29:25.761Z,1.10
2019-05-30T17:31:55.568Z,1.30
2019-05-30T17:34:26.059Z,1.20
2019-05-30T17:36:55.763Z,1.20
2019-05-30T17:39:26.690Z,1.30
2019-05-30T17:41:56.445Z,1.37
2019-05-30T17:44:27.204Z,1.17
2019-05-30T17:46:57.055Z,1.37
2019-05-30T17:49:27.853Z,1.30
2019-05-30T17:51:57.832Z,1.30
2019-05-30T17:54:28.063Z,1.43
2019-05-30T17:56:57.829Z,1.23
2019-05-30T17:59:28.537Z,1.37
2019-05-30T18:02:00.941Z,1.40
2019-05-30T18:04:30.851Z,1.30
2019-05-30T18:07:01.560Z,1.27
2019-05-30T18:09:31.302Z,1.73
2019-05-30T18:12:00.944Z,1.77
2019-05-30T18:14:31.430Z,1.17
2019-05-30T18:17:01.124Z,1.60
2019-05-30T18:19:31.496Z,1.43
2019-05-30T18:22:01.256Z,1.33
2019-05-30T18:24:31.990Z,1.33
2019-05-30T18:27:01.981Z,1.90
2019-05-30T18:29:32.267Z,1.30
2019-05-30T18:32:02.328Z,1.50
2019-05-30T18:34:32.746Z,1.43
2019-05-30T18:37:04.034Z,1.33
2019-05-30T18:39:33.998Z,1.60
2019-05-30T18:42:04.023Z,1.67
2019-05-30T18:44:34.476Z,1.23
2019-05-30T18:47:05.266Z,1.60
2019-05-30T18:49:34.923Z,1.80
2019-05-30T18:52:04.588Z,1.40
2019-05-30T18:54:34.249Z,1.77
2019-05-30T18:57:04.062Z,1.87
2019-05-30T18:59:33.739Z,1.77
2019-05-30T19:02:03.394Z,1.90
2019-05-30T19:04:33.694Z,2.40
2019-05-30T19:07:03.563Z,2.67
2019-05-30T19:09:34.635Z,2.83
2019-05-30T19:12:04.364Z,3.00
2019-05-30T19:14:35.828Z,3.10
2019-05-30T19:17:05.521Z,3.87
2019-05-30T19:19:35.997Z,3.90
2019-05-30T19:22:05.760Z,3.07
2019-05-30T19:24:35.438Z,3.00
2019-05-30T19:27:05.259Z,3.20
2019-05-30T19:29:35.010Z,3.30
2019-05-30T19:32:05.365Z,3.17
2019-05-30T19:34:35.009Z,3.43
2019-05-30T19:37:04.674Z,3.07
2019-05-30T19:39:35.642Z,3.77
2019-05-30T19:42:05.480Z,3.57
2019-05-30T19:44:38.379Z,3.87
2019-05-30T19:47:06.473Z,3.90
2019-05-30T19:49:36.902Z,3.47
2019-05-30T19:52:06.822Z,3.97
2019-05-30T19:54:37.206Z,3.60
2019-05-30T19:57:07.373Z,3.30
2019-05-30T19:59:37.896Z,3.20
2019-05-30T20:02:07.579Z,3.40
2019-05-30T20:04:38.322Z,3.97
2019-05-30T20:07:08.975Z,3.43
2019-05-30T20:09:41.218Z,3.23
2019-05-30T20:12:13.720Z,2.80
2019-05-30T20:14:46.506Z,3.03
2019-05-30T20:17:17.328Z,2.63
2019-05-30T20:19:48.580Z,2.87
2019-05-30T20:22:19.237Z,2.67
2019-05-30T20:24:51.625Z,2.60
2019-05-30T20:27:21.591Z,2.70
2019-05-30T20:29:53.419Z,2.70
2019-05-30T20:32:23.266Z,3.10
2019-05-30T20:34:52.884Z,2.77
2019-05-30T20:37:25.422Z,2.73
2019-05-30T20:39:55.699Z,2.70
2019-05-30T20:42:25.497Z,2.87
2019-05-30T20:44:55.514Z,2.80
2019-05-30T20:47:25.925Z,2.47
2019-05-30T20:49:55.582Z,2.47
2019-05-30T20:52:28.288Z,2.53
2019-05-30T20:54:58.193Z,2.30
2019-05-30T20:57:28.098Z,2.13
2019-05-30T20:59:57.746Z,2.03
2019-05-30T21:02:29.478Z,2.20
2019-05-30T21:04:59.139Z,2.00
2019-05-30T21:07:29.883Z,2.23
2019-05-30T21:10:01.187Z,2.10
2019-05-30T21:12:37.761Z,2.20
2019-05-30T21:15:05.757Z,2.40
2019-05-30T21:17:35.855Z,2.53
2019-05-30T21:20:05.926Z,2.40
2019-05-30T21:22:36.030Z,2.73
2019-05-30T21:25:06.213Z,2.57
2019-05-30T21:27:36.918Z,3.10
2019-05-30T21:30:06.875Z,2.70
2019-05-30T21:32:37.533Z,2.63
2019-05-30T21:35:08.583Z,2.30
2019-05-30T21:37:39.595Z,2.10
2019-05-30T21:40:09.972Z,2.33
2019-05-30T21:42:56.734Z,2.33
2019-05-30T21:45:11.253Z,2.40
2019-05-30T21:47:41.234Z,2.30
2019-05-30T21:50:11.357Z,3.00
2019-05-30T21:52:41.547Z,4.67
2019-05-30T21:55:11.556Z,5.03
2019-05-30T21:57:41.914Z,5.37
2019-05-30T22:00:13.625Z,5.50
2019-05-30T22:02:50.551Z,5.70
2019-05-30T22:05:20.605Z,5.43
2019-05-30T22:07:51.227Z,5.03
2019-05-30T22:10:22.062Z,4.60
2019-05-30T22:12:52.070Z,4.40
2019-05-30T22:15:21.715Z,4.53
2019-05-30T22:17:52.016Z,3.40
2019-05-30T22:20:21.953Z,3.13
2019-05-30T22:22:52.237Z,3.07
2019-05-30T22:25:21.922Z,3.17
2019-05-30T22:27:52.554Z,3.40
2019-05-30T22:30:22.417Z,3.27
2019-05-30T22:32:52.834Z,3.27
2019-05-30T22:35:22.601Z,3.63
2019-05-30T22:37:53.115Z,3.60
2019-05-30T22:40:23.047Z,3.30
2019-05-30T22:42:53.947Z,2.73
2019-05-30T22:45:23.604Z,3.10
2019-05-30T22:47:53.352Z,3.20
2019-05-30T22:50:24.092Z,3.03
2019-05-30T22:52:53.768Z,3.20
2019-05-30T22:55:23.500Z,3.60
2019-05-30T22:57:53.981Z,2.97
2019-05-30T23:00:23.737Z,3.03
2019-05-30T23:02:54.069Z,3.10
2019-05-30T23:05:23.893Z,3.30
2019-05-30T23:07:53.639Z,3.30
2019-05-30T23:10:23.567Z,3.10
2019-05-30T23:12:54.053Z,3.80
2019-05-30T23:15:23.812Z,3.30
2019-05-30T23:17:54.734Z,3.77
2019-05-30T23:20:24.753Z,3.73
2019-05-30T23:22:55.134Z,3.80
2019-05-30T23:25:25.415Z,3.67
2019-05-30T23:27:55.671Z,3.17
2019-05-30T23:30:25.440Z,3.73
2019-05-30T23:32:56.236Z,3.73
2019-05-30T23:35:26.117Z,3.87
2019-05-30T23:37:56.718Z,4.00
2019-05-30T23:40:26.570Z,3.60
2019-05-30T23:42:57.234Z,4.10
2019-05-30T23:45:27.044Z,4.13
2019-05-30T23:47:57.675Z,4.13
2019-05-30T23:50:27.371Z,4.27
2019-05-30T23:52:58.219Z,4.90
2019-05-30T23:55:28.603Z,4.47
2019-05-30T23:57:58.678Z,4.60
